sensor_id;sensor_type;location;lat;lon;timestamp;temperature;humidity
27759;DHT22;15148;48.972;12.794;2023-03-01T00:03:10;0.40;99.90
27759;DHT22;15148;48.972;12.794;2023-03-01T00:08:11;0.40;99.90
27759;DHT22;15148;48.972;12.794;2023-03-01T00:13:13;0.50;99.90
27759;DHT22;15148;48.972;12.794;2023-03-01T00:18:16;0.40;99.90
27759;DHT22;15148;48.972;12.794;2023-03-01T00:23:18;0.50;99.90
27759;DHT22;15148;48.972;12.794;2023-03-01T00:28:20;0.50;99.90
27759;DHT22;15148;48.972;12.794;2023-03-01T00:33:22;0.50;99.90
27759;DHT22;15148;48.972;12.794;2023-03-01T00:38:23;0.50;99.90
27759;DHT22;15148;48.972;12.794;2023-03-01T00:43:26;0.60;99.90
27759;DHT22;15148;48.972;12.794;2023-03-01T00:48:28;0.60;99.90
27759;DHT22;15148;48.972;12.794;2023-03-01T00:53:29;0.60;99.90
27759;DHT22;15148;48.972;12.794;2023-03-01T00:58:31;0.60;99.90
27759;DHT22;15148;48.972;12.794;2023-03-01T01:03:33;0.60;99.90
27759;DHT22;15148;48.972;12.794;2023-03-01T01:08:35;0.60;99.90
27759;DHT22;15148;48.972;12.794;2023-03-01T01:13:37;0.50;99.90
27759;DHT22;15148;48.972;12.794;2023-03-01T01:18:41;0.60;99.90
27759;DHT22;15148;48.972;12.794;2023-03-01T01:23:43;0.50;99.90
27759;DHT22;15148;48.972;12.794;2023-03-01T01:28:46;0.60;99.90
27759;DHT22;15148;48.972;12.794;2023-03-01T01:33:49;0.60;99.90
27759;DHT22;15148;48.972;12.794;2023-03-01T01:38:51;0.60;99.90
27759;DHT22;15148;48.972;12.794;2023-03-01T01:44:16;0.60;99.90
27759;DHT22;15148;48.972;12.794;2023-03-01T01:49:38;0.50;99.90
27759;DHT22;15148;48.972;12.794;2023-03-01T01:54:50;0.30;99.90
27759;DHT22;15148;48.972;12.794;2023-03-01T01:59:57;0.30;99.90
27759;DHT22;15148;48.972;12.794;2023-03-01T02:05:11;0.40;99.90
27759;DHT22;15148;48.972;12.794;2023-03-01T02:10:16;0.40;99.90
27759;DHT22;15148;48.972;12.794;2023-03-01T02:15:18;0.40;99.90
27759;DHT22;15148;48.972;12.794;2023-03-01T02:20:30;0.40;99.90
27759;DHT22;15148;48.972;12.794;2023-03-01T02:25:51;0.30;99.90
27759;DHT22;15148;48.972;12.794;2023-03-01T02:30:55;0.30;99.90
27759;DHT22;15148;48.972;12.794;2023-03-01T02:36:18;0.20;99.90
27759;DHT22;15148;48.972;12.794;2023-03-01T02:41:21;0.20;99.90
27759;DHT22;15148;48.972;12.794;2023-03-01T02:46:25;0.10;99.90
27759;DHT22;15148;48.972;12.794;2023-03-01T02:51:56;0.00;99.90
27759;DHT22;15148;48.972;12.794;2023-03-01T02:57:03;-0.20;99.90
27759;DHT22;15148;48.972;12.794;2023-03-01T03:02:07;-0.20;99.90
27759;DHT22;15148;48.972;12.794;2023-03-01T03:07:09;-0.20;99.90
27759;DHT22;15148;48.972;12.794;2023-03-01T03:12:11;-0.20;99.90
27759;DHT22;15148;48.972;12.794;2023-03-01T03:17:13;-0.30;99.90
27759;DHT22;15148;48.972;12.794;2023-03-01T03:22:15;-0.40;99.90
27759;DHT22;15148;48.972;12.794;2023-03-01T03:27:16;-0.50;99.90
27759;DHT22;15148;48.972;12.794;2023-03-01T03:32:18;-0.60;99.90
27759;DHT22;15148;48.972;12.794;2023-03-01T03:37:20;-0.70;99.90
27759;DHT22;15148;48.972;12.794;2023-03-01T03:42:41;-0.80;99.90
27759;DHT22;15148;48.972;12.794;2023-03-01T03:47:43;-0.90;99.90
27759;DHT22;15148;48.972;12.794;2023-03-01T03:52:45;-1.00;99.90
27759;DHT22;15148;48.972;12.794;2023-03-01T03:57:48;-1.10;99.90
27759;DHT22;15148;48.972;12.794;2023-03-01T04:02:53;-1.20;99.90
27759;DHT22;15148;48.972;12.794;2023-03-01T04:07:58;-1.20;99.90
27759;DHT22;15148;48.972;12.794;2023-03-01T04:13:17;-1.30;99.90
27759;DHT22;15148;48.972;12.794;2023-03-01T04:18:22;-1.30;99.90
27759;DHT22;15148;48.972;12.794;2023-03-01T04:23:24;-1.40;99.90
27759;DHT22;15148;48.972;12.794;2023-03-01T04:28:29;-1.50;99.90
27759;DHT22;15148;48.972;12.794;2023-03-01T04:33:31;-1.60;99.90
27759;DHT22;15148;48.972;12.794;2023-03-01T04:38:33;-1.70;99.90
27759;DHT22;15148;48.972;12.794;2023-03-01T04:43:35;-1.80;99.90
27759;DHT22;15148;48.972;12.794;2023-03-01T04:48:38;-1.80;99.90
27759;DHT22;15148;48.972;12.794;2023-03-01T04:53:41;-1.80;99.90
27759;DHT22;15148;48.972;12.794;2023-03-01T04:58:44;-1.80;99.90
27759;DHT22;15148;48.972;12.794;2023-03-01T05:03:50;-1.90;99.90
27759;DHT22;15148;48.972;12.794;2023-03-01T05:08:52;-1.90;99.90
27759;DHT22;15148;48.972;12.794;2023-03-01T05:13:54;-1.90;99.90
27759;DHT22;15148;48.972;12.794;2023-03-01T05:18:57;-1.90;99.90
27759;DHT22;15148;48.972;12.794;2023-03-01T05:23:59;-1.90;99.90
27759;DHT22;15148;48.972;12.794;2023-03-01T05:29:01;-2.00;99.90
27759;DHT22;15148;48.972;12.794;2023-03-01T05:34:03;-2.00;99.90
27759;DHT22;15148;48.972;12.794;2023-03-01T05:39:05;-2.00;99.90
27759;DHT22;15148;48.972;12.794;2023-03-01T05:44:07;-2.10;99.90
27759;DHT22;15148;48.972;12.794;2023-03-01T05:49:09;-2.10;99.90
27759;DHT22;15148;48.972;12.794;2023-03-01T05:54:10;-2.10;99.90
27759;DHT22;15148;48.972;12.794;2023-03-01T05:59:12;-2.10;99.90
27759;DHT22;15148;48.972;12.794;2023-03-01T06:04:15;-2.20;99.90
27759;DHT22;15148;48.972;12.794;2023-03-01T06:09:17;-2.20;99.90
27759;DHT22;15148;48.972;12.794;2023-03-01T06:14:18;-2.20;99.90
27759;DHT22;15148;48.972;12.794;2023-03-01T06:19:22;-2.20;99.90
27759;DHT22;15148;48.972;12.794;2023-03-01T06:24:24;-2.10;99.90
27759;DHT22;15148;48.972;12.794;2023-03-01T06:29:26;-2.10;99.90
27759;DHT22;15148;48.972;12.794;2023-03-01T06:34:27;-2.00;99.90
27759;DHT22;15148;48.972;12.794;2023-03-01T06:39:29;-2.00;99.90
27759;DHT22;15148;48.972;12.794;2023-03-01T06:44:31;-1.90;99.90
27759;DHT22;15148;48.972;12.794;2023-03-01T06:49:33;-1.60;99.90
27759;DHT22;15148;48.972;12.794;2023-03-01T06:54:35;-1.30;99.90
27759;DHT22;15148;48.972;12.794;2023-03-01T06:59:36;-1.00;99.90
27759;DHT22;15148;48.972;12.794;2023-03-01T07:04:39;-0.60;99.90
27759;DHT22;15148;48.972;12.794;2023-03-01T07:09:40;-0.20;99.90
27759;DHT22;15148;48.972;12.794;2023-03-01T07:14:43;0.20;99.90
27759;DHT22;15148;48.972;12.794;2023-03-01T07:19:45;0.40;99.90
27759;DHT22;15148;48.972;12.794;2023-03-01T07:24:47;0.50;99.90
27759;DHT22;15148;48.972;12.794;2023-03-01T07:29:49;0.60;99.90
27759;DHT22;15148;48.972;12.794;2023-03-01T07:34:51;0.70;99.90
27759;DHT22;15148;48.972;12.794;2023-03-01T07:39:53;1.10;99.90
27759;DHT22;15148;48.972;12.794;2023-03-01T07:44:55;1.60;99.90
27759;DHT22;15148;48.972;12.794;2023-03-01T07:49:56;1.70;99.90
27759;DHT22;15148;48.972;12.794;2023-03-01T07:54:58;1.80;99.90
27759;DHT22;15148;48.972;12.794;2023-03-01T08:00:00;2.10;99.90
27759;DHT22;15148;48.972;12.794;2023-03-01T08:05:12;2.40;99.90
27759;DHT22;15148;48.972;12.794;2023-03-01T08:10:14;2.70;99.90
27759;DHT22;15148;48.972;12.794;2023-03-01T08:15:16;2.80;99.90
27759;DHT22;15148;48.972;12.794;2023-03-01T08:20:18;3.10;99.90
27759;DHT22;15148;48.972;12.794;2023-03-01T08:25:20;3.30;99.90
27759;DHT22;15148;48.972;12.794;2023-03-01T08:30:22;3.60;99.90
27759;DHT22;15148;48.972;12.794;2023-03-01T08:35:25;3.80;99.90
27759;DHT22;15148;48.972;12.794;2023-03-01T08:40:27;4.00;99.90
27759;DHT22;15148;48.972;12.794;2023-03-01T08:45:29;4.00;99.90
27759;DHT22;15148;48.972;12.794;2023-03-01T08:50:30;4.20;99.90
27759;DHT22;15148;48.972;12.794;2023-03-01T08:55:32;4.30;99.90
27759;DHT22;15148;48.972;12.794;2023-03-01T09:00:34;4.30;99.90
27759;DHT22;15148;48.972;12.794;2023-03-01T09:05:36;4.50;99.90
27759;DHT22;15148;48.972;12.794;2023-03-01T09:10:38;4.60;99.90
27759;DHT22;15148;48.972;12.794;2023-03-01T09:15:40;4.60;99.90
27759;DHT22;15148;48.972;12.794;2023-03-01T09:20:42;4.80;99.90
27759;DHT22;15148;48.972;12.794;2023-03-01T09:25:44;5.00;99.90
27759;DHT22;15148;48.972;12.794;2023-03-01T09:30:46;5.10;99.90
27759;DHT22;15148;48.972;12.794;2023-03-01T09:35:48;5.30;99.90
27759;DHT22;15148;48.972;12.794;2023-03-01T09:40:49;5.50;99.90
27759;DHT22;15148;48.972;12.794;2023-03-01T09:45:53;5.50;99.90
27759;DHT22;15148;48.972;12.794;2023-03-01T09:50:57;5.60;99.90
27759;DHT22;15148;48.972;12.794;2023-03-01T10:01:26;5.60;99.90
27759;DHT22;15148;48.972;12.794;2023-03-01T10:06:31;5.60;99.90
27759;DHT22;15148;48.972;12.794;2023-03-01T10:11:38;5.80;99.90
27759;DHT22;15148;48.972;12.794;2023-03-01T10:16:54;5.70;99.90
27759;DHT22;15148;48.972;12.794;2023-03-01T10:22:04;5.90;99.90
27759;DHT22;15148;48.972;12.794;2023-03-01T10:32:20;6.20;99.90
27759;DHT22;15148;48.972;12.794;2023-03-01T10:37:26;6.40;99.90
27759;DHT22;15148;48.972;12.794;2023-03-01T10:42:34;6.40;99.90
27759;DHT22;15148;48.972;12.794;2023-03-01T10:47:36;6.40;99.90
27759;DHT22;15148;48.972;12.794;2023-03-01T10:52:41;6.50;99.90
27759;DHT22;15148;48.972;12.794;2023-03-01T10:57:43;6.60;99.90
27759;DHT22;15148;48.972;12.794;2023-03-01T11:03:02;6.70;99.90
27759;DHT22;15148;48.972;12.794;2023-03-01T11:08:04;6.80;99.90
27759;DHT22;15148;48.972;12.794;2023-03-01T11:13:17;6.90;99.90
27759;DHT22;15148;48.972;12.794;2023-03-01T11:18:22;7.00;99.90
27759;DHT22;15148;48.972;12.794;2023-03-01T11:23:43;7.20;99.90
27759;DHT22;15148;48.972;12.794;2023-03-01T11:28:51;7.20;99.90
27759;DHT22;15148;48.972;12.794;2023-03-01T11:34:11;7.20;99.90
27759;DHT22;15148;48.972;12.794;2023-03-01T11:39:37;7.40;99.90
27759;DHT22;15148;48.972;12.794;2023-03-01T11:44:43;7.50;99.90
27759;DHT22;15148;48.972;12.794;2023-03-01T12:01:25;8.00;99.90
27759;DHT22;15148;48.972;12.794;2023-03-01T12:17:29;7.90;99.90
27759;DHT22;15148;48.972;12.794;2023-03-01T12:22:42;8.20;99.90
27759;DHT22;15148;48.972;12.794;2023-03-01T12:28:02;8.40;99.90
27759;DHT22;15148;48.972;12.794;2023-03-01T12:54:20;9.20;99.70
27759;DHT22;15148;48.972;12.794;2023-03-01T12:59:34;9.30;99.90
27759;DHT22;15148;48.972;12.794;2023-03-01T13:04:53;9.40;98.20
27759;DHT22;15148;48.972;12.794;2023-03-01T13:10:26;9.50;99.30
27759;DHT22;15148;48.972;12.794;2023-03-01T13:15:34;9.50;98.60
27759;DHT22;15148;48.972;12.794;2023-03-01T13:31:03;9.80;98.70
27759;DHT22;15148;48.972;12.794;2023-03-01T13:36:06;9.90;98.90
27759;DHT22;15148;48.972;12.794;2023-03-01T13:41:10;9.80;99.20
27759;DHT22;15148;48.972;12.794;2023-03-01T13:46:17;10.00;99.70
27759;DHT22;15148;48.972;12.794;2023-03-01T13:51:26;10.10;98.30
27759;DHT22;15148;48.972;12.794;2023-03-01T13:56:36;10.20;97.30
27759;DHT22;15148;48.972;12.794;2023-03-01T14:01:39;9.90;98.70
27759;DHT22;15148;48.972;12.794;2023-03-01T14:06:44;9.80;97.80
27759;DHT22;15148;48.972;12.794;2023-03-01T14:23:14;9.50;99.90
27759;DHT22;15148;48.972;12.794;2023-03-01T14:28:28;9.40;99.90
27759;DHT22;15148;48.972;12.794;2023-03-01T14:33:35;9.30;99.90
27759;DHT22;15148;48.972;12.794;2023-03-01T14:38:44;9.20;99.90
27759;DHT22;15148;48.972;12.794;2023-03-01T14:44:01;9.10;99.90
27759;DHT22;15148;48.972;12.794;2023-03-01T14:49:11;9.20;99.90
27759;DHT22;15148;48.972;12.794;2023-03-01T14:54:43;8.90;99.90
27759;DHT22;15148;48.972;12.794;2023-03-01T14:59:46;8.80;99.90
27759;DHT22;15148;48.972;12.794;2023-03-01T15:04:52;8.80;99.90
27759;DHT22;15148;48.972;12.794;2023-03-01T15:09:54;8.90;99.90
27759;DHT22;15148;48.972;12.794;2023-03-01T15:14:57;8.90;99.90
27759;DHT22;15148;48.972;12.794;2023-03-01T15:20:26;8.70;99.90
27759;DHT22;15148;48.972;12.794;2023-03-01T15:25:30;8.60;99.90
27759;DHT22;15148;48.972;12.794;2023-03-01T15:30:34;8.50;99.90
27759;DHT22;15148;48.972;12.794;2023-03-01T15:35:43;8.40;99.90
27759;DHT22;15148;48.972;12.794;2023-03-01T15:40:49;8.30;99.90
27759;DHT22;15148;48.972;12.794;2023-03-01T15:45:57;8.20;99.90
27759;DHT22;15148;48.972;12.794;2023-03-01T15:51:00;7.90;99.90
27759;DHT22;15148;48.972;12.794;2023-03-01T15:56:03;7.60;99.90
27759;DHT22;15148;48.972;12.794;2023-03-01T16:01:12;7.40;99.90
27759;DHT22;15148;48.972;12.794;2023-03-01T16:06:14;7.20;99.90
27759;DHT22;15148;48.972;12.794;2023-03-01T16:11:19;7.00;99.90
27759;DHT22;15148;48.972;12.794;2023-03-01T16:16:21;6.90;99.90
27759;DHT22;15148;48.972;12.794;2023-03-01T16:21:24;6.80;99.90
27759;DHT22;15148;48.972;12.794;2023-03-01T16:26:26;6.70;99.90
27759;DHT22;15148;48.972;12.794;2023-03-01T16:31:28;6.60;99.90
27759;DHT22;15148;48.972;12.794;2023-03-01T16:36:31;6.40;99.90
27759;DHT22;15148;48.972;12.794;2023-03-01T16:41:33;6.30;99.90
27759;DHT22;15148;48.972;12.794;2023-03-01T16:46:35;6.20;99.90
27759;DHT22;15148;48.972;12.794;2023-03-01T16:51:36;6.00;99.90
27759;DHT22;15148;48.972;12.794;2023-03-01T16:56:38;5.90;99.90
27759;DHT22;15148;48.972;12.794;2023-03-01T17:01:41;5.70;99.90
27759;DHT22;15148;48.972;12.794;2023-03-01T17:06:43;5.50;99.90
27759;DHT22;15148;48.972;12.794;2023-03-01T17:11:45;5.20;99.90
27759;DHT22;15148;48.972;12.794;2023-03-01T17:16:46;5.10;99.90
27759;DHT22;15148;48.972;12.794;2023-03-01T17:21:48;5.00;99.90
27759;DHT22;15148;48.972;12.794;2023-03-01T17:26:50;4.90;99.90
27759;DHT22;15148;48.972;12.794;2023-03-01T17:31:52;4.70;99.90
27759;DHT22;15148;48.972;12.794;2023-03-01T17:36:56;4.60;99.90
27759;DHT22;15148;48.972;12.794;2023-03-01T17:41:58;4.70;99.90
27759;DHT22;15148;48.972;12.794;2023-03-01T17:47:01;4.70;99.90
27759;DHT22;15148;48.972;12.794;2023-03-01T17:52:03;4.60;99.90
27759;DHT22;15148;48.972;12.794;2023-03-01T17:57:05;4.40;99.90
27759;DHT22;15148;48.972;12.794;2023-03-01T18:02:08;4.50;99.90
27759;DHT22;15148;48.972;12.794;2023-03-01T18:07:11;4.30;99.90
27759;DHT22;15148;48.972;12.794;2023-03-01T18:12:12;4.20;99.90
27759;DHT22;15148;48.972;12.794;2023-03-01T18:17:14;4.20;99.90
27759;DHT22;15148;48.972;12.794;2023-03-01T18:22:16;4.50;99.90
27759;DHT22;15148;48.972;12.794;2023-03-01T18:27:18;4.70;99.90
27759;DHT22;15148;48.972;12.794;2023-03-01T18:32:20;4.70;99.90
27759;DHT22;15148;48.972;12.794;2023-03-01T18:37:22;4.70;99.90
27759;DHT22;15148;48.972;12.794;2023-03-01T18:42:25;4.70;99.90
27759;DHT22;15148;48.972;12.794;2023-03-01T18:47:27;4.70;99.90
27759;DHT22;15148;48.972;12.794;2023-03-01T18:52:29;4.60;99.90
27759;DHT22;15148;48.972;12.794;2023-03-01T18:57:30;4.60;99.90
27759;DHT22;15148;48.972;12.794;2023-03-01T19:02:32;4.50;99.90
27759;DHT22;15148;48.972;12.794;2023-03-01T19:07:34;4.30;99.90
27759;DHT22;15148;48.972;12.794;2023-03-01T19:12:36;4.10;99.90
27759;DHT22;15148;48.972;12.794;2023-03-01T19:17:39;4.10;99.90
27759;DHT22;15148;48.972;12.794;2023-03-01T19:22:40;4.00;99.90
27759;DHT22;15148;48.972;12.794;2023-03-01T19:27:42;3.90;99.90
27759;DHT22;15148;48.972;12.794;2023-03-01T19:32:44;3.70;99.90
27759;DHT22;15148;48.972;12.794;2023-03-01T19:37:46;3.60;99.90
27759;DHT22;15148;48.972;12.794;2023-03-01T19:42:47;3.40;99.90
27759;DHT22;15148;48.972;12.794;2023-03-01T19:47:49;3.10;99.90
27759;DHT22;15148;48.972;12.794;2023-03-01T19:52:52;2.90;99.90
27759;DHT22;15148;48.972;12.794;2023-03-01T19:57:54;2.80;99.90
27759;DHT22;15148;48.972;12.794;2023-03-01T20:02:56;2.70;99.90
27759;DHT22;15148;48.972;12.794;2023-03-01T20:07:58;2.60;99.90
27759;DHT22;15148;48.972;12.794;2023-03-01T20:13:00;2.50;99.90
27759;DHT22;15148;48.972;12.794;2023-03-01T20:18:04;2.40;99.90
27759;DHT22;15148;48.972;12.794;2023-03-01T20:23:06;2.50;99.90
27759;DHT22;15148;48.972;12.794;2023-03-01T20:28:08;2.90;99.90
27759;DHT22;15148;48.972;12.794;2023-03-01T20:33:10;3.00;99.90
27759;DHT22;15148;48.972;12.794;2023-03-01T20:38:12;3.20;99.90
27759;DHT22;15148;48.972;12.794;2023-03-01T20:43:14;3.10;99.90
27759;DHT22;15148;48.972;12.794;2023-03-01T20:48:15;2.90;99.90
27759;DHT22;15148;48.972;12.794;2023-03-01T20:53:17;2.60;99.90
27759;DHT22;15148;48.972;12.794;2023-03-01T20:58:19;2.30;99.90
27759;DHT22;15148;48.972;12.794;2023-03-01T21:03:21;2.10;99.90
27759;DHT22;15148;48.972;12.794;2023-03-01T21:08:23;1.80;99.90
27759;DHT22;15148;48.972;12.794;2023-03-01T21:13:26;1.80;99.90
27759;DHT22;15148;48.972;12.794;2023-03-01T21:18:28;1.80;99.90
27759;DHT22;15148;48.972;12.794;2023-03-01T21:23:33;1.70;99.90
27759;DHT22;15148;48.972;12.794;2023-03-01T21:28:36;1.70;99.90
27759;DHT22;15148;48.972;12.794;2023-03-01T21:33:39;1.80;99.90
27759;DHT22;15148;48.972;12.794;2023-03-01T21:38:45;1.70;99.90
27759;DHT22;15148;48.972;12.794;2023-03-01T21:43:48;1.60;99.90
27759;DHT22;15148;48.972;12.794;2023-03-01T21:48:52;1.50;99.90
27759;DHT22;15148;48.972;12.794;2023-03-01T21:53:55;1.50;99.90
27759;DHT22;15148;48.972;12.794;2023-03-01T21:58:57;1.40;99.90
27759;DHT22;15148;48.972;12.794;2023-03-01T22:04:00;1.40;99.90
27759;DHT22;15148;48.972;12.794;2023-03-01T22:09:05;1.70;99.90
27759;DHT22;15148;48.972;12.794;2023-03-01T22:14:08;1.90;99.90
27759;DHT22;15148;48.972;12.794;2023-03-01T22:19:11;2.20;99.90
27759;DHT22;15148;48.972;12.794;2023-03-01T22:24:13;2.50;99.90
27759;DHT22;15148;48.972;12.794;2023-03-01T22:29:20;3.00;99.90
27759;DHT22;15148;48.972;12.794;2023-03-01T22:34:22;3.20;99.90
27759;DHT22;15148;48.972;12.794;2023-03-01T22:39:24;3.50;99.90
27759;DHT22;15148;48.972;12.794;2023-03-01T22:44:26;3.80;99.90
27759;DHT22;15148;48.972;12.794;2023-03-01T22:49:28;4.00;99.90
27759;DHT22;15148;48.972;12.794;2023-03-01T22:54:30;4.40;99.90
27759;DHT22;15148;48.972;12.794;2023-03-01T22:59:32;4.40;99.90
27759;DHT22;15148;48.972;12.794;2023-03-01T23:04:34;4.50;99.90
27759;DHT22;15148;48.972;12.794;2023-03-01T23:09:36;4.60;99.90
27759;DHT22;15148;48.972;12.794;2023-03-01T23:14:38;4.70;99.90
27759;DHT22;15148;48.972;12.794;2023-03-01T23:19:41;4.80;99.90
27759;DHT22;15148;48.972;12.794;2023-03-01T23:24:42;4.70;99.90
27759;DHT22;15148;48.972;12.794;2023-03-01T23:29:44;4.60;99.90
27759;DHT22;15148;48.972;12.794;2023-03-01T23:34:46;4.50;99.90
27759;DHT22;15148;48.972;12.794;2023-03-01T23:39:48;4.70;99.90
27759;DHT22;15148;48.972;12.794;2023-03-01T23:44:50;4.60;99.90
27759;DHT22;15148;48.972;12.794;2023-03-01T23:49:52;4.60;99.90
27759;DHT22;15148;48.972;12.794;2023-03-01T23:54:53;4.70;99.90
27759;DHT22;15148;48.972;12.794;2023-03-01T23:59:55;4.60;99.90
